Time;durP1;ratioP1;P1;durP2;ratioP2;P2;SDS_P1;SDS_P2;PMS_P1;PMS_P2;Temp;Humidity;BMP_temperature;BMP_pressure;BME280_temperature;BME280_humidity;BME280_pressure;Samples;Min_cycle;Max_cycle;Signal;HPM_P1;HPM_P2
2021/12/24 00:02:21;;;;;;;7.72;3.53;;;;;;;-0.73;80.81;92554.19;4959458;28;20326;-87
2021/12/24 00:05:02;;;;;;;8.75;2.80;;;;;;;-0.72;80.95;92564.25;4954409;28;20034;-88
2021/12/24 00:07:46;;;;;;;;;;;;;;;;;;;;;
2021/12/24 00:10:59;;;;;;;;;;;;;;;;;;;;;
2021/12/24 00:14:46;;;;;;;;;;;;;;;;;;;;;
2021/12/24 00:17:23;;;;;;;7.82;3.20;;;;;;;-0.53;80.26;92543.66;4979383;28;20038;-88
2021/12/24 00:38:06;;;;;;;4.97;2.92;;;;;;;-0.30;80.59;92543.75;4976388;28;20041;-87
2021/12/24 00:41:05;;;;;;;5.18;2.88;;;;;;;-0.47;81.35;92512.72;4958421;28;20024;-87
2021/12/24 00:43:46;;;;;;;5.63;2.70;;;;;;;-0.23;80.94;92549.59;4955094;28;20035;-87
2021/12/24 00:47:03;;;;;;;;;;;;;;;;;;;;;
2021/12/24 00:49:42;;;;;;;5.72;3.00;;;;;;;-0.45;81.04;92515.88;4965529;28;20479;-88
2021/12/24 00:52:57;;;;;;;8.25;3.25;;;;;;;-0.34;80.36;92521.25;4958426;28;20036;-87
2021/12/24 00:55:28;;;;;;;6.05;2.90;;;;;;;-0.21;80.57;92546.81;4952985;28;20067;-87
2021/12/24 00:58:22;;;;;;;;;;;;;;;;;;;;;
2021/12/24 01:01:27;;;;;;;;;;;;;;;;;;;;;
2021/12/24 01:04:10;;;;;;;;;;;;;;;;;;;;;
2021/12/24 01:07:10;;;;;;;;;;;;;;;;;;;;;
2021/12/24 01:09:59;;;;;;;4.88;2.83;;;;;;;-0.62;80.69;92496.88;4961824;28;20035;-88
2021/12/24 01:12:47;;;;;;;7.68;3.33;;;;;;;-0.49;81.13;92516.53;4953944;29;20122;-88
2021/12/24 01:15:23;;;;;;;7.10;3.00;;;;;;;-0.44;81.64;92520.00;4969674;28;20034;-87
2021/12/24 01:18:28;;;;;;;;;;;;;;;;;;;;;
2021/12/24 01:24:22;;;;;;;5.47;3.00;;;;;;;-0.29;81.71;92511.91;4957755;28;20104;-87
2021/12/24 01:27:05;;;;;;;5.30;2.65;;;;;;;-0.32;81.63;92504.59;4942209;28;20026;-88
2021/12/24 01:45:31;;;;;;;5.65;2.90;;;;;;;0.77;79.49;92552.50;4964599;28;20157;-87
2021/12/24 01:48:26;;;;;;;5.10;2.80;;;;;;;0.62;78.92;92525.34;4957585;28;20427;-87
2021/12/24 01:51:28;;;;;;;4.63;2.70;;;;;;;0.53;79.03;92511.25;4956700;28;20043;-88
2021/12/24 01:54:42;;;;;;;;;;;;;;;;;;;;;
2021/12/24 01:57:32;;;;;;;6.38;2.90;;;;;;;0.46;78.71;92510.56;4956820;28;20093;-88
2021/12/24 02:00:03;;;;;;;4.70;2.60;;;;;;;0.24;78.93;92476.06;4957216;28;20122;-87
2021/12/24 02:02:43;;;;;;;4.53;2.42;;;;;;;0.72;78.99;92545.44;4957707;28;20039;-88
2021/12/24 02:05:57;;;;;;;5.45;2.83;;;;;;;0.34;78.93;92489.97;4954316;28;20053;-89
2021/12/24 02:08:48;;;;;;;5.50;2.70;;;;;;;0.28;79.12;92477.19;4956355;28;20049;-88
2021/12/24 02:11:40;;;;;;;;;;;;;;;;;;;;;
2021/12/24 02:14:30;;;;;;;5.30;2.67;;;;;;;0.16;79.64;92457.38;4974042;28;20061;-88
2021/12/24 02:28:54;;;;;;;5.55;2.63;;;;;;;0.30;81.29;92454.59;4976664;28;20030;-88
2021/12/24 02:31:38;;;;;;;4.97;2.67;;;;;;;0.74;81.02;92522.00;4946860;28;20035;-88
2021/12/24 02:34:28;;;;;;;5.22;2.95;;;;;;;0.33;81.13;92454.13;4947743;28;20561;-88
2021/12/24 02:37:13;;;;;;;6.10;2.70;;;;;;;0.49;80.78;92474.06;4960583;28;20035;-89
2021/12/24 02:40:30;;;;;;;5.30;2.78;;;;;;;0.68;80.96;92492.78;4964152;28;20026;-88
2021/12/24 02:43:22;;;;;;;5.55;2.70;;;;;;;0.42;80.97;92442.47;4960941;28;20042;-88
2021/12/24 02:46:05;;;;;;;4.05;2.22;;;;;;;0.44;80.89;92435.31;4962786;28;20472;-88
2021/12/24 02:54:37;;;;;;;7.10;2.67;;;;;;;0.60;81.19;92450.09;4967405;28;20177;-89
2021/12/24 02:57:55;;;;;;;;;;;;;;;;;;;;;
2021/12/24 03:00:30;;;;;;;6.50;3.10;;;;;;;0.72;81.98;92452.66;4962289;28;20034;-88
2021/12/24 03:03:23;;;;;;;;;;;;;;;;;;;;;
2021/12/24 03:06:11;;;;;;;;;;;;;;;;;;;;;
2021/12/24 03:08:49;;;;;;;5.10;3.13;;;;;;;0.86;81.81;92453.19;4962125;28;20070;-90
2021/12/24 03:11:49;;;;;;;5.20;2.78;;;;;;;0.71;81.17;92414.22;4960448;28;20039;-88
2021/12/24 03:14:29;;;;;;;6.00;2.95;;;;;;;1.01;81.40;92450.94;4970838;28;20034;-88
2021/12/24 03:17:11;;;;;;;6.50;2.88;;;;;;;1.02;81.33;92437.03;4963371;28;20031;-88
2021/12/24 03:20:07;;;;;;;;;;;;;;;;;;;;;
2021/12/24 03:23:44;;;;;;;5.47;2.60;;;;;;;1.28;81.04;92463.28;4966570;28;20047;-88
2021/12/24 03:26:49;;;;;;;5.07;2.63;;;;;;;1.17;80.78;92433.97;4971267;28;20046;-88
2021/12/24 03:29:47;;;;;;;5.53;2.83;;;;;;;1.37;81.46;92454.16;4948160;28;20484;-89
2021/12/24 03:32:44;;;;;;;4.68;2.60;;;;;;;1.01;81.60;92389.06;4971715;28;20057;-89
2021/12/24 03:35:40;;;;;;;5.68;2.60;;;;;;;1.30;80.89;92396.78;4969697;28;20049;-90
2021/12/24 03:38:19;;;;;;;5.25;2.53;;;;;;;1.32;80.46;92394.75;4961627;28;20086;-87
2021/12/24 03:41:09;;;;;;;;;;;;;;;;;;;;;
2021/12/24 03:45:06;;;;;;;6.38;2.63;;;;;;;1.76;79.94;92444.03;4960542;28;20165;-88
2021/12/24 03:47:33;;;;;;;;;;;;;;;;;;;;;
2021/12/24 03:50:39;;;;;;;5.32;2.47;;;;;;;1.41;79.79;92377.09;4953025;29;20058;-88
2021/12/24 03:56:32;;;;;;;7.10;2.45;;;;;;;1.69;80.32;92415.00;4976077;28;20054;-89
2021/12/24 03:59:21;;;;;;;5.38;2.58;;;;;;;1.45;80.38;92371.25;4945887;28;20031;-88
2021/12/24 04:02:20;;;;;;;;;;;;;;;;;;;;;
2021/12/24 04:05:19;;;;;;;5.72;2.45;;;;;;;1.66;79.46;92380.09;4953178;28;20086;-92
2021/12/24 04:08:34;;;;;;;5.25;2.60;;;;;;;1.57;79.80;92360.06;4925087;29;20032;-91
2021/12/24 04:11:38;;;;;;;4.95;2.60;;;;;;;1.58;79.82;92356.50;4923905;29;20059;-88
2021/12/24 04:14:17;;;;;;;5.35;2.78;;;;;;;1.82;79.93;92383.72;4956512;29;20098;-88
2021/12/24 04:17:03;;;;;;;7.13;2.80;;;;;;;1.60;79.88;92349.28;4964906;28;20031;-88
2021/12/24 04:25:49;;;;;;;;;;;;;;;;;;;;;
2021/12/24 04:28:43;;;;;;;9.15;2.40;;;;;;;2.08;79.00;92395.19;4976100;28;20053;-88
2021/12/24 04:31:38;;;;;;;;;;;;;;;;;;;;;
2021/12/24 04:34:42;;;;;;;4.43;2.42;;;;;;;1.80;79.10;92359.13;4946654;28;20058;-88
2021/12/24 05:04:07;;;;;;;5.00;2.50;;;;;;;1.91;78.59;92323.94;4963416;28;20472;-89
2021/12/24 05:07:02;;;;;;;;;;;;;;;;;;;;;
2021/12/24 05:09:47;;;;;;;4.65;2.50;;;;;;;1.96;78.32;92316.25;4947382;29;20042;-87
2021/12/24 05:12:25;;;;;;;7.38;2.80;;;;;;;2.38;78.39;92380.38;4942605;29;20499;-89
2021/12/24 05:15:17;;;;;;;3.97;2.35;;;;;;;1.95;78.58;92317.28;4942854;28;20043;-90
2021/12/24 05:21:54;;;;;;;5.75;2.10;;;;;;;2.39;78.79;92369.81;4964155;28;20050;-88
2021/12/24 05:25:13;;;;;;;;;;;;;;;;;;;;;
2021/12/24 05:27:57;;;;;;;;;;;;;;;;;;;;;
2021/12/24 05:30:50;;;;;;;4.22;2.10;;;;;;;2.32;75.75;92298.66;4978324;28;20049;-88
2021/12/24 05:33:28;;;;;;;;;;;;;;;;;;;;;
2021/12/24 05:36:12;;;;;;;;;;;;;;;;;;;;;
2021/12/24 05:39:03;;;;;;;;;;;;;;;;;;;;;
2021/12/24 05:41:42;;;;;;;;;;;;;;;;;;;;;
2021/12/24 05:45:07;;;;;;;;;;;;;;;;;;;;;
2021/12/24 05:47:53;;;;;;;;;;;;;;;;;;;;;
2021/12/24 05:50:58;;;;;;;;;;;;;;;;;;;;;
2021/12/24 05:54:04;;;;;;;5.10;2.50;;;;;;;2.35;75.93;92329.19;4914262;29;20516;-88
2021/12/24 05:56:59;;;;;;;4.72;2.45;;;;;;;2.20;76.64;92322.78;4944476;28;20726;-86
2021/12/24 05:59:59;;;;;;;7.00;2.60;;;;;;;2.37;76.55;92337.47;4956102;28;20041;-87
2021/12/24 06:02:38;;;;;;;3.85;2.25;;;;;;;2.08;76.94;92296.31;4940657;28;20049;-88
2021/12/24 06:05:29;;;;;;;3.83;2.20;;;;;;;2.24;77.48;92326.47;4959618;28;20035;-88
2021/12/24 06:08:41;;;;;;;;;;;;;;;;;;;;;
2021/12/24 06:11:17;;;;;;;5.53;2.65;;;;;;;2.05;77.25;92299.38;4960997;28;20037;-88
2021/12/24 06:13:51;;;;;;;4.85;2.40;;;;;;;2.19;77.66;92321.25;4941423;28;20043;-91
2021/12/24 06:19:39;;;;;;;4.18;2.17;;;;;;;2.14;77.07;92302.31;4963628;28;20381;-89
2021/12/24 06:22:24;;;;;;;;;;;;;;;;;;;;;
2021/12/24 06:25:10;;;;;;;4.38;2.30;;;;;;;2.10;77.19;92286.53;4956897;28;20034;-87
2021/12/24 06:27:45;;;;;;;5.10;2.53;;;;;;;2.24;77.46;92308.38;4942158;28;20081;-86
2021/12/24 06:30:32;;;;;;;;;;;;;;;;;;;;;
2021/12/24 06:33:59;;;;;;;5.38;2.83;;;;;;;2.42;77.71;92330.56;4971978;28;20031;-90
2021/12/24 06:36:55;;;;;;;6.65;2.83;;;;;;;2.08;77.39;92278.22;4970561;28;20043;-87
2021/12/24 06:42:55;;;;;;;;;;;;;;;;;;;;;
2021/12/24 06:45:49;;;;;;;6.10;3.28;;;;;;;2.24;77.23;92297.28;4945149;28;20064;-87
2021/12/24 06:48:37;;;;;;;6.25;3.20;;;;;;;2.23;77.64;92286.16;4956032;28;20031;-87
2021/12/24 06:51:42;;;;;;;4.82;2.72;;;;;;;2.39;78.28;92305.22;4961178;28;20041;-87
2021/12/24 06:54:33;;;;;;;;;;;;;;;;;;;;;
2021/12/24 06:57:31;;;;;;;;;;;;;;;;;;;;;
2021/12/24 07:00:28;;;;;;;4.40;2.20;;;;;;;2.60;76.96;92306.22;4951441;28;20521;-87
2021/12/24 07:03:29;;;;;;;;;;;;;;;;;;;;;
2021/12/24 07:06:45;;;;;;;6.35;2.83;;;;;;;2.57;77.34;92296.38;4972654;28;20055;-86
2021/12/24 07:09:45;;;;;;;6.07;3.00;;;;;;;2.34;77.23;92260.44;4959792;28;20042;-87
2021/12/24 07:12:23;;;;;;;5.40;2.97;;;;;;;2.56;77.19;92302.56;4948296;28;20036;-87
2021/12/24 07:18:19;;;;;;;;;;;;;;;;;;;;;
2021/12/24 07:21:15;;;;;;;6.75;3.10;;;;;;;2.34;77.20;92265.63;4960142;28;20309;-87
2021/12/24 07:24:12;;;;;;;5.00;2.95;;;;;;;2.45;77.59;92288.75;4934735;29;20126;-86
2021/12/24 07:26:53;;;;;;;4.32;2.30;;;;;;;2.35;77.75;92267.19;4948982;28;20034;-87
2021/12/24 07:29:55;;;;;;;5.05;2.53;;;;;;;2.48;74.69;92292.66;4966288;28;20029;-87
2021/12/24 07:32:33;;;;;;;4.00;2.33;;;;;;;2.62;74.96;92314.53;4973338;28;20041;-86
2021/12/24 07:35:10;;;;;;;5.97;2.80;;;;;;;2.32;74.87;92272.81;4959178;28;20127;-86
2021/12/24 07:37:42;;;;;;;6.20;2.38;;;;;;;2.40;75.21;92291.28;4976488;28;20046;-87
2021/12/24 07:40:38;;;;;;;4.38;2.22;;;;;;;2.64;75.12;92325.41;4977102;28;20026;-84
2021/12/24 07:43:34;;;;;;;4.75;2.47;;;;;;;2.46;75.45;92305.03;4978667;28;20380;-86
2021/12/24 07:46:32;;;;;;;3.50;1.95;;;;;;;2.27;75.99;92276.13;4972137;28;20054;-90
2021/12/24 07:49:30;;;;;;;5.47;2.45;;;;;;;2.47;75.95;92291.09;4967016;28;20034;-92
2021/12/24 07:55:10;;;;;;;4.20;2.33;;;;;;;2.38;76.83;92271.88;4979075;28;20238;-87
2021/12/24 07:57:46;;;;;;;6.05;3.00;;;;;;;2.27;77.30;92251.09;4957666;29;20043;-86
2021/12/24 08:00:43;;;;;;;5.30;2.50;;;;;;;2.51;77.47;92276.66;4956519;29;20035;-85
2021/12/24 08:03:27;;;;;;;3.97;2.22;;;;;;;2.58;78.02;92282.44;4972325;28;20037;-86
2021/12/24 08:05:58;;;;;;;3.00;1.90;;;;;;;2.50;78.07;92260.41;4974918;28;20035;-86
2021/12/24 08:08:24;;;;;;;3.60;2.00;;;;;;;2.55;77.84;92262.25;4974268;28;20038;-87
2021/12/24 08:10:57;;;;;;;4.35;2.35;;;;;;;2.54;77.74;92257.31;4958390;28;20033;-85
2021/12/24 08:13:36;;;;;;;4.72;2.25;;;;;;;2.39;77.74;92232.09;4975058;28;20114;-86
2021/12/24 08:16:09;;;;;;;10.07;4.28;;;;;;;2.67;77.89;92260.31;4955154;29;20039;-85
2021/12/24 08:18:44;;;;;;;10.82;4.90;;;;;;;2.71;78.09;92265.78;4961477;28;20027;-86
2021/12/24 08:21:25;;;;;;;6.05;3.08;;;;;;;2.61;78.19;92234.66;4976177;28;20118;-87
2021/12/24 08:24:03;;;;;;;7.45;3.13;;;;;;;2.56;77.73;92225.03;4961055;28;20041;-86
2021/12/24 08:26:45;;;;;;;6.47;3.30;;;;;;;2.78;77.59;92250.84;4961759;28;20035;-87
2021/12/24 08:29:21;;;;;;;8.82;3.05;;;;;;;2.83;77.86;92252.69;4946086;28;20469;-86
2021/12/24 08:31:48;;;;;;;5.93;2.60;;;;;;;3.09;77.17;92289.94;4958372;28;20085;-85
2021/12/24 08:34:16;;;;;;;9.85;2.80;;;;;;;2.98;76.45;92267.59;4958867;28;20033;-85
2021/12/24 08:36:46;;;;;;;4.93;2.78;;;;;;;2.91;76.50;92254.88;4959003;28;20035;-86
2021/12/24 08:39:31;;;;;;;4.30;2.10;;;;;;;2.87;77.20;92246.03;4959867;28;20147;-86
2021/12/24 08:42:16;;;;;;;;;;;;;;;;;;;;;
2021/12/24 08:44:52;;;;;;;6.78;2.30;;;;;;;2.73;69.98;92231.94;4975116;28;20030;-86
2021/12/24 08:47:25;;;;;;;4.00;2.00;;;;;;;2.68;70.79;92230.84;4960261;28;20423;-86
2021/12/24 08:49:54;;;;;;;7.97;2.50;;;;;;;2.82;70.69;92251.16;4961204;28;20040;-85
2021/12/24 08:52:22;;;;;;;4.65;2.20;;;;;;;3.04;71.07;92285.50;4976027;28;20475;-85
2021/12/24 08:54:50;;;;;;;4.93;2.30;;;;;;;2.90;70.87;92261.03;4943126;28;20035;-89
2021/12/24 08:57:19;;;;;;;3.05;1.67;;;;;;;2.96;70.32;92257.50;4958170;28;20595;-87
2021/12/24 08:59:47;;;;;;;4.38;1.90;;;;;;;2.78;70.13;92229.41;4974098;28;20107;-86
2021/12/24 09:02:19;;;;;;;4.90;2.38;;;;;;;2.83;70.41;92237.19;4957650;28;20051;-85
2021/12/24 09:04:55;;;;;;;4.10;2.40;;;;;;;3.12;70.88;92276.50;4960448;28;20077;-86
2021/12/24 09:07:25;;;;;;;3.92;2.05;;;;;;;3.15;70.73;92275.22;4973433;28;20049;-86
2021/12/24 09:09:55;;;;;;;4.22;2.08;;;;;;;2.99;70.70;92238.88;4957885;28;20465;-86
2021/12/24 09:12:26;;;;;;;5.13;2.63;;;;;;;3.22;70.71;92266.25;4973811;28;20130;-85
2021/12/24 09:14:54;;;;;;;5.25;2.22;;;;;;;3.12;70.37;92240.28;4958312;28;20074;-86
2021/12/24 09:17:23;;;;;;;5.13;2.55;;;;;;;3.35;70.16;92259.88;4976132;28;20037;-85
2021/12/24 09:19:53;;;;;;;4.55;2.30;;;;;;;3.14;69.51;92220.13;4977458;28;20045;-85
2021/12/24 09:22:29;;;;;;;3.20;2.10;;;;;;;3.49;68.06;92273.97;4994194;28;20038;-88
2021/12/24 09:24:59;;;;;;;3.22;1.90;;;;;;;3.17;69.07;92221.44;4961765;28;20041;-86
2021/12/24 09:27:28;;;;;;;7.38;2.67;;;;;;;3.34;69.15;92233.22;4957822;28;20380;-85
2021/12/24 09:30:04;;;;;;;5.07;2.50;;;;;;;3.40;70.23;92231.47;4957792;28;20038;-86
2021/12/24 09:32:32;;;;;;;4.88;2.75;;;;;;;3.62;70.04;92248.69;4975101;28;20032;-90
2021/12/24 09:34:58;;;;;;;6.20;2.90;;;;;;;3.46;70.33;92224.50;4958125;28;20037;-85
2021/12/24 09:37:27;;;;;;;6.25;2.67;;;;;;;3.69;70.89;92244.06;4974247;28;20032;-85
2021/12/24 09:39:58;;;;;;;4.95;2.58;;;;;;;3.51;70.80;92209.81;4958486;28;20030;-86
2021/12/24 09:42:27;;;;;;;6.72;2.83;;;;;;;3.58;70.00;92219.16;4956775;28;20093;-86
2021/12/24 09:44:55;;;;;;;4.55;2.55;;;;;;;3.51;69.96;92207.22;4938900;28;20035;-85
2021/12/24 09:47:26;;;;;;;6.03;2.45;;;;;;;3.52;69.77;92208.78;4940891;28;20042;-85
2021/12/24 09:49:54;;;;;;;8.38;2.97;;;;;;;3.51;69.35;92211.59;4940558;28;20034;-84
2021/12/24 09:52:23;;;;;;;3.85;1.98;;;;;;;3.57;66.77;92215.00;4953198;29;20452;-85
2021/12/24 09:54:50;;;;;;;5.90;2.10;;;;;;;3.68;66.84;92227.00;4953136;29;20035;-84
2021/12/24 09:57:16;;;;;;;4.30;2.13;;;;;;;3.86;67.34;92254.28;4937170;29;20023;-85
2021/12/24 09:59:42;;;;;;;5.28;2.70;;;;;;;3.73;68.03;92229.59;4937358;29;20031;-85
2021/12/24 10:02:14;;;;;;;5.38;2.58;;;;;;;3.65;68.77;92209.38;4966138;28;20026;-85
2021/12/24 10:04:51;;;;;;;4.47;2.42;;;;;;;3.52;69.22;92182.13;4940570;28;20030;-86
2021/12/24 10:07:24;;;;;;;5.00;2.53;;;;;;;3.97;70.03;92248.91;4936797;28;20041;-85
2021/12/24 10:09:51;;;;;;;4.00;2.20;;;;;;;3.65;70.51;92191.25;4926027;29;20040;-84
2021/12/24 10:12:24;;;;;;;4.57;2.20;;;;;;;3.88;70.39;92227.09;4937549;28;20027;-84
2021/12/24 10:14:59;;;;;;;3.92;2.22;;;;;;;3.92;70.03;92220.41;4926314;28;20376;-85
2021/12/24 10:17:29;;;;;;;4.15;2.20;;;;;;;3.67;70.05;92168.47;4941159;29;20032;-85
2021/12/24 10:19:58;;;;;;;4.40;2.22;;;;;;;3.72;70.15;92176.28;4943584;28;20038;-85
2021/12/24 10:22:25;;;;;;;6.55;2.78;;;;;;;3.92;70.39;92210.03;4920938;29;20023;-87
2021/12/24 10:25:03;;;;;;;5.53;2.80;;;;;;;3.83;70.15;92201.19;4920845;28;20070;-84
2021/12/24 10:27:34;;;;;;;4.60;2.38;;;;;;;3.66;68.53;92187.63;4938477;28;20031;-85
2021/12/24 10:30:22;;;;;;;4.63;2.08;;;;;;;3.66;69.16;92187.63;4940409;28;20038;-85
2021/12/24 10:33:00;;;;;;;3.88;2.08;;;;;;;3.70;68.69;92178.34;4926460;28;20038;-85
2021/12/24 10:35:30;;;;;;;4.40;2.20;;;;;;;3.68;67.29;92177.81;4933652;28;20791;-84
2021/12/24 10:38:13;;;;;;;5.47;2.33;;;;;;;4.03;67.14;92228.22;4940681;29;20039;-84
2021/12/24 10:40:58;;;;;;;5.07;2.22;;;;;;;3.94;67.81;92209.78;4935423;28;20049;-84
2021/12/24 10:43:33;;;;;;;4.50;2.30;;;;;;;3.73;67.78;92170.06;4928594;29;20032;-87
2021/12/24 10:46:15;;;;;;;4.28;2.15;;;;;;;4.07;68.08;92224.84;4917852;29;20130;-84
2021/12/24 10:49:03;;;;;;;5.43;2.00;;;;;;;4.03;65.72;92202.31;4903452;29;20036;-86
2021/12/24 10:51:54;;;;;;;6.35;3.03;;;;;;;3.84;64.91;92153.53;4955009;28;20050;-85
2021/12/24 10:54:23;;;;;;;8.23;3.37;;;;;;;4.27;63.65;92195.66;4937404;29;20085;-84
2021/12/24 10:56:49;;;;;;;5.78;2.50;;;;;;;3.89;63.25;92156.16;4917802;29;20035;-84
2021/12/24 10:59:44;;;;;;;5.28;2.10;;;;;;;3.58;63.34;92147.47;4927688;28;20754;-84
2021/12/24 11:02:11;;;;;;;4.55;2.15;;;;;;;3.59;63.79;92166.38;4916380;29;20039;-85
2021/12/24 11:04:37;;;;;;;4.55;2.15;;;;;;;3.66;64.84;92185.81;4924914;28;20472;-84
2021/12/24 11:07:42;;;;;;;5.10;2.17;;;;;;;3.89;65.00;92207.16;4950331;28;20054;-85
2021/12/24 11:10:19;;;;;;;4.07;2.00;;;;;;;3.92;65.67;92204.09;4958933;28;20027;-84
2021/12/24 11:12:47;;;;;;;4.35;2.17;;;;;;;3.82;66.00;92178.91;4959679;28;20042;-85
2021/12/24 11:15:37;;;;;;;3.95;2.08;;;;;;;4.03;65.22;92204.91;4954169;28;20031;-86
2021/12/24 11:18:21;;;;;;;4.25;2.08;;;;;;;3.93;64.82;92183.09;4944275;28;20050;-84
2021/12/24 11:21:02;;;;;;;4.45;2.30;;;;;;;3.97;64.63;92202.28;4965622;28;20039;-84
2021/12/24 11:23:35;;;;;;;4.60;2.15;;;;;;;3.88;64.64;92185.66;4973771;28;20034;-84
2021/12/24 11:26:27;;;;;;;3.67;2.00;;;;;;;3.83;64.32;92175.31;4972219;28;20045;-89
2021/12/24 11:28:53;;;;;;;4.28;2.20;;;;;;;3.94;64.58;92200.22;4982697;28;20045;-92
2021/12/24 11:31:27;;;;;;;4.05;2.40;;;;;;;3.93;65.38;92198.63;4980379;28;20256;-93
2021/12/24 11:33:58;;;;;;;3.97;2.17;;;;;;;3.82;65.83;92175.53;4962341;28;20137;-84
2021/12/24 11:36:33;;;;;;;6.15;2.22;;;;;;;3.58;66.16;92129.34;4942412;29;20035;-85
2021/12/24 11:39:06;;;;;;;6.78;2.95;;;;;;;3.77;66.83;92150.41;4941437;29;20028;-84
2021/12/24 11:41:34;;;;;;;15.00;8.57;;;;;;;3.63;67.07;92126.78;4955547;28;20077;-84
2021/12/24 11:44:07;;;;;;;16.63;8.10;;;;;;;3.91;67.09;92143.72;4943637;28;20451;-85
2021/12/24 11:46:41;;;;;;;14.32;7.72;;;;;;;3.66;67.17;92090.03;4959178;28;20174;-84
2021/12/24 11:49:07;;;;;;;11.13;5.90;;;;;;;4.03;67.43;92133.16;4958867;28;20716;-84
2021/12/24 11:51:40;;;;;;;14.27;5.90;;;;;;;3.96;66.68;92094.56;4942490;28;20130;-84
2021/12/24 11:54:10;;;;;;;3.95;2.15;;;;;;;3.66;65.20;92115.16;4955503;28;20499;-86
2021/12/24 11:56:41;;;;;;;5.20;2.50;;;;;;;3.33;62.83;92070.47;4942633;28;20027;-84
2021/12/24 11:59:09;;;;;;;5.10;2.38;;;;;;;3.31;63.63;92072.53;4959171;28;20035;-85
2021/12/24 12:01:41;;;;;;;3.95;2.15;;;;;;;3.58;65.31;92108.66;4957104;28;20127;-85
2021/12/24 12:04:19;;;;;;;6.05;2.75;;;;;;;3.34;65.48;92077.22;4957768;28;20031;-85
2021/12/24 12:07:16;;;;;;;10.82;3.50;;;;;;;3.46;65.93;92087.34;4939061;29;20511;-84
2021/12/24 12:09:44;;;;;;;8.13;2.97;;;;;;;3.73;66.51;92128.63;4955472;28;20062;-85
2021/12/24 12:12:16;;;;;;;7.45;3.55;;;;;;;3.58;67.10;92094.91;4945205;28;20023;-85
2021/12/24 12:14:42;;;;;;;7.10;3.72;;;;;;;3.61;67.39;92086.66;4939032;28;20118;-86
2021/12/24 12:17:08;;;;;;;4.40;2.50;;;;;;;3.94;66.88;92119.94;4938093;28;20027;-83
2021/12/24 12:19:57;;;;;;;9.18;3.00;;;;;;;3.87;66.23;92100.47;4971676;28;20082;-85
2021/12/24 12:25:34;;;;;;;5.30;2.58;;;;;;;4.17;66.98;92104.97;4958126;28;20080;-85
2021/12/24 12:28:08;;;;;;;5.22;2.55;;;;;;;4.26;66.93;92098.25;4952660;28;20186;-85
2021/12/24 12:31:00;;;;;;;4.75;2.45;;;;;;;4.25;63.04;92120.00;4941712;28;20042;-84
2021/12/24 12:33:34;;;;;;;4.75;2.53;;;;;;;4.01;60.60;92111.91;4955916;28;20487;-85
2021/12/24 12:36:05;;;;;;;5.60;2.70;;;;;;;3.64;61.81;92068.03;4939647;28;20488;-84
2021/12/24 12:38:45;;;;;;;4.88;2.63;;;;;;;3.70;62.88;92079.97;4955994;28;20419;-85
2021/12/24 12:41:32;;;;;;;8.13;2.92;;;;;;;3.76;63.78;92086.72;4937999;28;20335;-84
2021/12/24 12:44:04;;;;;;;5.95;2.78;;;;;;;3.55;64.45;92052.97;4958263;28;20081;-84
2021/12/24 12:46:39;;;;;;;5.10;2.60;;;;;;;3.56;65.12;92053.78;4941132;28;20042;-85
2021/12/24 12:49:18;;;;;;;4.57;2.58;;;;;;;3.67;65.70;92049.38;4973086;28;20026;-86
2021/12/24 12:52:00;;;;;;;5.82;2.83;;;;;;;3.67;66.54;92049.38;4975468;28;20050;-84
2021/12/24 12:54:37;;;;;;;6.95;2.65;;;;;;;4.00;67.51;92088.84;4968947;28;20035;-84
2021/12/24 12:57:12;;;;;;;6.03;2.70;;;;;;;4.12;67.74;92105.75;4940998;28;20030;-85
2021/12/24 12:59:39;;;;;;;5.80;2.83;;;;;;;4.06;67.56;92087.84;4973146;28;20031;-85
2021/12/24 13:02:05;;;;;;;5.35;2.97;;;;;;;4.06;67.67;92072.31;4941192;29;20031;-84
2021/12/24 13:04:31;;;;;;;5.05;3.00;;;;;;;4.13;67.35;92083.97;4939490;28;20492;-85
2021/12/24 13:06:58;;;;;;;5.85;2.30;;;;;;;4.04;63.57;92079.56;4940348;28;20046;-84
2021/12/24 13:09:33;;;;;;;6.05;3.15;;;;;;;3.73;62.57;92082.81;4973258;28;20415;-84
2021/12/24 13:12:03;;;;;;;6.30;3.58;;;;;;;3.61;63.33;92071.91;4939586;28;20035;-84
2021/12/24 13:14:31;;;;;;;7.90;3.40;;;;;;;3.68;63.90;92076.84;4955532;28;20034;-84
2021/12/24 13:25:10;;;;;;;6.95;2.63;;;;;;;3.85;66.81;92056.72;4947903;28;20101;-84
2021/12/24 13:27:50;;;;;;;4.85;2.53;;;;;;;3.97;66.74;92070.19;4960077;28;20035;-84
2021/12/24 13:30:18;;;;;;;6.65;2.78;;;;;;;4.09;66.53;92074.38;4957410;28;20034;-84
2021/12/24 13:32:50;;;;;;;6.15;2.90;;;;;;;4.11;66.70;92069.72;4953321;28;20049;-84
2021/12/24 13:35:19;;;;;;;5.53;2.67;;;;;;;4.07;66.60;92059.06;4952987;28;20038;-86
2021/12/24 13:37:48;;;;;;;5.03;2.80;;;;;;;4.14;65.98;92064.00;4946397;28;20027;-84
2021/12/24 13:40:20;;;;;;;8.25;3.28;;;;;;;4.15;63.74;92052.63;4955792;28;20042;-85
2021/12/24 13:42:56;;;;;;;4.80;2.65;;;;;;;4.08;63.43;92067.66;4940449;28;20467;-86
2021/12/24 13:45:24;;;;;;;5.90;3.13;;;;;;;3.88;62.70;92065.78;4973609;28;20034;-88
2021/12/24 13:48:02;;;;;;;6.57;3.10;;;;;;;3.80;63.09;92059.28;4956950;28;20035;-84
2021/12/24 13:56:05;;;;;;;12.35;7.22;;;;;;;3.82;65.65;92046.84;4950974;28;20126;-84
2021/12/24 13:58:32;;;;;;;10.75;5.75;;;;;;;3.96;66.38;92058.31;4964498;28;20451;-84
2021/12/24 14:01:01;;;;;;;12.48;6.70;;;;;;;3.91;66.68;92036.78;4939607;28;20030;-87
2021/12/24 14:03:34;;;;;;;6.78;3.30;;;;;;;3.85;63.87;92030.81;4955852;28;20030;-85
2021/12/24 14:06:04;;;;;;;6.82;3.25;;;;;;;4.02;64.57;92053.13;4955500;28;20022;-84
2021/12/24 14:08:36;;;;;;;5.80;3.30;;;;;;;3.99;65.55;92040.69;4973244;28;20047;-84
2021/12/24 14:11:13;;;;;;;6.93;3.35;;;;;;;3.99;65.60;92030.34;4965397;28;20035;-85
2021/12/24 14:13:45;;;;;;;9.32;3.03;;;;;;;4.05;65.30;92042.25;4954445;28;20035;-85
2021/12/24 14:19:08;;;;;;;10.05;5.53;;;;;;;3.89;64.09;92036.25;4942675;28;20054;-84
2021/12/24 14:21:46;;;;;;;7.20;4.20;;;;;;;3.84;64.29;92026.66;4954522;28;20089;-86
2021/12/24 14:24:13;;;;;;;6.75;3.38;;;;;;;4.04;64.32;92051.06;4953992;28;20051;-86
2021/12/24 14:26:41;;;;;;;6.47;3.50;;;;;;;4.07;64.57;92042.75;4938829;28;20488;-84
2021/12/24 14:29:07;;;;;;;7.03;3.80;;;;;;;4.11;64.83;92056.75;4955006;28;20083;-84
2021/12/24 14:31:48;;;;;;;6.18;2.90;;;;;;;4.11;64.24;92047.19;4942853;28;20055;-85
2021/12/24 14:34:47;;;;;;;6.57;2.97;;;;;;;4.08;64.18;92041.75;4955050;28;20038;-85
2021/12/24 14:37:12;;;;;;;6.00;2.60;;;;;;;4.11;63.69;92051.59;4971537;28;20070;-85
2021/12/24 14:39:45;;;;;;;6.53;2.60;;;;;;;4.02;63.93;92045.34;4969097;28;20042;-86
2021/12/24 14:42:21;;;;;;;4.22;2.38;;;;;;;3.93;64.25;92026.94;4952551;28;20472;-84
2021/12/24 14:44:49;;;;;;;6.15;2.60;;;;;;;4.08;64.69;92046.94;4949130;29;20042;-85
2021/12/24 14:47:20;;;;;;;5.47;2.63;;;;;;;4.05;65.01;92039.66;4946711;28;20122;-85
2021/12/24 14:49:46;;;;;;;5.68;2.75;;;;;;;4.02;65.25;92035.75;4954470;28;20073;-85
2021/12/24 14:52:19;;;;;;;4.82;2.50;;;;;;;4.02;65.00;92048.72;4953529;28;20051;-85
2021/12/24 14:55:11;;;;;;;6.25;3.20;;;;;;;3.99;65.22;92051.06;4953161;28;20043;-90
2021/12/24 14:57:52;;;;;;;6.20;2.90;;;;;;;3.89;64.92;92037.03;4968245;28;20033;-86
2021/12/24 15:00:23;;;;;;;5.53;2.83;;;;;;;3.89;65.13;92039.63;4953667;28;20038;-84
2021/12/24 15:02:50;;;;;;;4.95;2.60;;;;;;;3.79;65.21;92031.84;4953802;28;20085;-86
2021/12/24 15:05:33;;;;;;;6.13;3.17;;;;;;;3.52;66.21;92000.97;4961492;28;20070;-91
2021/12/24 15:08:09;;;;;;;4.47;2.50;;;;;;;3.70;66.32;92039.31;4991077;28;20050;-90
2021/12/24 15:10:35;;;;;;;5.70;3.10;;;;;;;3.63;66.84;92040.59;4955507;28;20062;-86
2021/12/24 15:13:12;;;;;;;8.40;3.33;;;;;;;3.47;67.45;92019.84;4940574;28;20038;-85
2021/12/24 15:15:38;;;;;;;9.10;4.30;;;;;;;3.51;68.19;92033.03;4969086;28;20062;-85
2021/12/24 15:18:03;;;;;;;12.00;4.50;;;;;;;3.46;68.02;92033.00;4971553;28;20061;-89
2021/12/24 15:20:29;;;;;;;5.28;3.10;;;;;;;3.22;68.32;92001.59;4952609;28;20550;-82
2021/12/24 15:22:56;;;;;;;7.65;4.10;;;;;;;3.34;68.15;92028.06;4938929;28;20031;-84
2021/12/24 15:25:22;;;;;;;13.02;5.82;;;;;;;3.19;69.23;92025.41;4971683;28;20062;-86
2021/12/24 15:27:50;;;;;;;7.95;4.00;;;;;;;3.05;69.62;92028.44;4957291;28;20039;-83
2021/12/24 15:30:16;;;;;;;7.32;4.40;;;;;;;2.96;70.01;92027.34;4939319;28;20035;-84
2021/12/24 15:32:42;;;;;;;7.28;4.18;;;;;;;2.80;70.62;92017.97;4956052;28;20102;-84
2021/12/24 15:35:08;;;;;;;7.68;4.35;;;;;;;2.83;70.91;92031.16;4939827;28;20096;-86
2021/12/24 15:37:37;;;;;;;7.70;4.68;;;;;;;2.76;70.89;92024.66;4958345;28;20041;-85
2021/12/24 15:40:02;;;;;;;7.60;4.80;;;;;;;2.58;70.89;92018.06;4933251;28;20121;-85
2021/12/24 15:42:29;;;;;;;6.70;4.18;;;;;;;2.62;70.45;92035.41;4976835;28;20736;-87
2021/12/24 15:44:55;;;;;;;7.63;3.80;;;;;;;2.59;70.17;92040.28;4958680;28;20026;-85
2021/12/24 15:47:20;;;;;;;6.25;3.22;;;;;;;2.49;70.54;92028.09;4957185;28;20031;-87
2021/12/24 15:49:46;;;;;;;7.63;3.70;;;;;;;2.48;70.70;92047.22;4966998;28;20106;-84